Golden, Illinois
Current Conditions -  °F | °C
As of 10:54 AM on Friday 19 Dec 2014 (Local Time) from KUIN Reporting Station
Overcast Overcast  
Wind Chill: 25°   Ceiling: 3000
Heat Index: 31°   Visibility: 8mi
Dew Point: 23°   Wind: 6mph
Humidity: 72%   Direction: 140°SE
Pressure: 30.31"   Gusts: NA
Location:  40.11°N, 91.02°W
Report Text: KUIN 191654Z AUTO 14005KT 8SM BKN030 OVC055 M01/M05 A3031 RMK AO2 SLP271 T10061050
Loading
Personal Weather Stations






























Interactive Weather Map New forecast layout! Learn more

10-Day Weather Forecast

Advertisements
Track Severe Weather on mobile